Terminal Aerodrome Forecast
Issued by NWS Blacksburg, VA

Current Version | Previous Version | Text Only | Print | Product List | Glossary Off
Versions: 1 2 3 4 5 6 7 8 9 10 11 12 13 14 15 16 17 18 19 20 21 22 23 24 25 26

000
FTUS41 KRNK 291128
TAFBLF
TAF
KBLF 291128Z 2912/3012 VRB03KT P6SM BKN080
     FM291400 21005KT P6SM SCT025 SCT100
     FM291700 19006KT 6SM -SHRA VCTS BKN045CB
     FM292300 17005KT P6SM VCSH BKN080
     FM300400 19004KT P6SM BKN100=

USA.gov is the U.S. government's official web portal to all federal, state and local government web resources and services.